Nearby METAR Reports

 

KLOM - Philly Wings F, Pennsylvania, USA
Distance from station: SW 6mi, 10km
Updated: Thu, 02-Oct-2014 12:15am EDT
Partly cloudy
Partly cloudy
 Wind from calm
Wind: Calm
Temperature: 61°F , 16°C
Dew Point: 59°F , 15°C
Humidity: 94%
Barometer: 30.07 inHg , 1018.3 hPa
Clouds: Partly cloudy
Visibility: 10 miles , 16 km
Cloud details: Mostly cloudy 2100 ft
Partly cloudy 4500 ft
2014/10/02 04:15 KLOM 020415Z AUTO 00000KT 10SM BKN021 SCT045 16/15 A3007 RMK AO1
KDYL - Doylestown, Pennsylvania, USA
Distance from station: NNE 10mi, 17km
Updated: Thu, 02-Oct-2014 12:06am EDT
Overcast
Overcast
 Wind from calm
Wind: Calm
Temperature: 61°F , 16°C
Dew Point: 57°F , 14°C
Humidity: 88%
Barometer: 30.08 inHg , 1018.6 hPa
Clouds: Overcast
Visibility: 10 miles , 16 km
Cloud details: Partly cloudy 1900 ft
Overcast 3700 ft
2014/10/02 04:06 KDYL 020406Z AUTO 00000KT 10SM SCT019 OVC037 16/14 A3008 RMK AO2 T01560144
KPNE - Philadelphia/Ne, Pennsylvania, USA
Distance from station: SE 11mi, 18km
Updated: Wed, 01-Oct-2014 11:54pm EDT
Mostly cloudy
Mostly cloudy
 Wind from NNE
Wind: NNE 5 mph , 7 km/h
Temperature: 64°F , 18°C
Dew Point: 55°F , 13°C
Humidity: 73%
Barometer: 30.09 inHg , 1019 hPa
Clouds: Mostly cloudy
Visibility: 10 miles , 16 km
Cloud details: Mostly cloudy 2800 ft
2014/10/02 03:54 KPNE 020354Z 02004KT 10SM BKN028 18/13 A3009 RMK AO2 SLP188 T01780128
 
KPTW - Pottstown, Pennsylvania, USA
Distance from station: W 20mi, 32km
Updated: Wed, 01-Oct-2014 11:54pm EDT
Mostly cloudy
Mostly cloudy
 Wind from calm
Wind: Calm
Temperature: 59°F , 15°C
Dew Point: 55°F , 13°C
Humidity: 88%
Barometer: 30.10 inHg , 1019.3 hPa
Clouds: Mostly cloudy
Visibility: 10 miles , 16 km
Cloud details: Mostly cloudy 4400 ft
2014/10/02 03:54 KPTW 020354Z AUTO 00000KT 10SM BKN044 15/13 A3010 RMK AO2 SLP188 T01500133
KTTN - Trenton, New Jersey, USA
Distance from station: ENE 20mi, 32km
Updated: Wed, 01-Oct-2014 11:53pm EDT
Overcast
Overcast
 Wind from NNE
Wind: NNE 7 mph , 11 km/h
Temperature: 63°F , 17°C
Dew Point: 57°F , 14°C
Humidity: 83%
Barometer: 30.07 inHg , 1018.3 hPa
Clouds: Overcast
Visibility: 10 miles , 16 km
Cloud details: Few Clouds 2200 ft
Overcast 3800 ft
2014/10/02 03:53 KTTN 020353Z AUTO 03006KT 10SM FEW022 OVC038 17/14 A3007 RMK AO2 SLP175 T01670139
KUKT - Quakertown Arp, Pennsylvania, USA
Distance from station: NNW 20mi, 32km
Updated: Thu, 02-Oct-2014 12:15am EDT
Mostly cloudy
Mostly cloudy
 Wind from calm
Wind: Calm
Temperature: 57°F , 14°C
Dew Point: 55°F , 13°C
Humidity: 94%
Barometer: 30.10 inHg , 1019.3 hPa
Clouds: Mostly cloudy
Visibility: 10 miles , 16 km
Cloud details: Mostly cloudy 3600 ft
2014/10/02 04:15 KUKT 020415Z AUTO 00000KT 10SM BKN036 14/13 A3010 RMK AO1
 
KPHL - Philadelphia, Pennsylvania, USA
Distance from station: S 22mi, 36km
Updated: Wed, 01-Oct-2014 11:54pm EDT
Mostly cloudy
Mostly cloudy
 Wind from ENE
Wind: ENE 5 mph , 7 km/h
Temperature: 64°F , 18°C
Dew Point: 57°F , 14°C
Humidity: 78%
Barometer: 30.07 inHg , 1018.3 hPa
Clouds: Mostly cloudy
Visibility: 10 miles , 16 km
Cloud details: Few Clouds 2600 ft
Partly cloudy 4900 ft
Partly cloudy 11000 ft
Mostly cloudy 18000 ft
2014/10/02 03:54 KPHL 020354Z 07004KT 10SM FEW026 SCT049 SCT110 BKN180 18/14 A3007 RMK AO2 SLP182 T01830144 $
KVAY - Mount Holly, New Jersey, USA
Distance from station: SE 25mi, 41km
Updated: Wed, 01-Oct-2014 11:54pm EDT
Mostly cloudy
Mostly cloudy
 Wind from calm
Wind: Calm
Temperature: 61°F , 16°C
Dew Point: 57°F , 14°C
Humidity: 88%
Barometer: 30.07 inHg , 1018.3 hPa
Clouds: Mostly cloudy
Visibility: 10 miles , 16 km
Cloud details: Mostly cloudy 2200 ft
2014/10/02 03:54 KVAY 020354Z AUTO 00000KT 10SM BKN022 16/14 A3007 RMK AO2 SLP181 T01610139
KXLL - Allentown Queen, Pennsylvania, USA
Distance from station: NNW 31mi, 49km
Updated: Thu, 02-Oct-2014 12:15am EDT
Overcast
Overcast
 Wind from NE
Wind: NE 5 mph , 7 km/h
Temperature: 63°F , 17°C
Dew Point: 55°F , 13°C
Humidity: 77%
Barometer: 30.11 inHg , 1019.6 hPa
Clouds: Overcast
Visibility: 10 miles , 16 km
Cloud details: Partly cloudy 2800 ft
Overcast 3500 ft
2014/10/02 04:15 KXLL 020415Z AUTO 05004KT 10SM SCT028 OVC035 17/13 A3011 RMK AO2
 
KWRI - Wrightst/Mcguire, New Jersey, USA
Distance from station: ESE 34mi, 54km
Updated: Wed, 01-Oct-2014 11:58pm EDT
Mostly cloudy
Mostly cloudy
 Wind from NNW
Wind: NNW 1 mph , 2 km/h
Temperature: 57°F , 14°C
Dew Point: 57°F , 14°C
Humidity: 100%
Barometer: 30.05 inHg , 1017.6 hPa
Clouds: Mostly cloudy
Visibility: 10 miles , 16 km
Cloud details: Mostly cloudy 2000 ft
2014/10/02 03:58 KWRI 020358Z AUTO 33001KT 10SM BKN020 14/14 A3005 RMK AO2 SLP179 T01430142
KABE - Allentown, Pennsylvania, USA
Distance from station: NNW 35mi, 56km
Updated: Wed, 01-Oct-2014 11:51pm EDT
Overcast
Overcast
 Wind from NE
Wind: NE 6 mph , 9 km/h
Temperature: 61°F , 16°C
Dew Point: 55°F , 13°C
Humidity: 83%
Barometer: 30.09 inHg , 1019 hPa
Clouds: Overcast
Visibility: 10 miles , 16 km
Cloud details: Overcast 3300 ft
2014/10/02 03:51 KABE 020351Z 04005KT 10SM OVC033 16/13 A3009 RMK AO2 SLP189 T01610133
KMQS - Coatesville, Pennsylvania, USA
Distance from station: WSW 39mi, 63km
Updated: Thu, 02-Oct-2014 12:15am EDT
Few Clouds
Few Clouds
 Wind from calm
Wind: Calm
Temperature: 59°F , 15°C
Dew Point: 57°F , 14°C
Humidity: 94%
Barometer: 30.10 inHg , 1019.3 hPa
Clouds: Few Clouds
Visibility: 10 miles , 16 km
Cloud details: Few Clouds 10000 ft
2014/10/02 04:15 KMQS 020415Z AUTO 00000KT 10SM FEW100 15/14 A3010 RMK AO2
 
KSMQ - Somerville, New Jersey, USA
Distance from station: NE 40mi, 64km
Updated: Thu, 02-Oct-2014 12:05am EDT
Overcast
Overcast
 Wind from calm
Wind: Calm
Temperature: 63°F , 17°C
Dew Point: 57°F , 14°C
Humidity: 83%
Barometer: 30.06 inHg , 1017.9 hPa
Clouds: Overcast
Visibility: 10 miles , 16 km
Cloud details: Partly cloudy 2100 ft
Mostly cloudy 2600 ft
Overcast 3200 ft
2014/10/02 04:05 KSMQ 020405Z AUTO 00000KT 10SM SCT021 BKN026 OVC032 17/14 A3006 RMK AO2 T01720139
KILG - Wilmington, Delaware, USA
Distance from station: SSW 42mi, 68km
Updated: Wed, 01-Oct-2014 11:51pm EDT
Mostly cloudy
Mostly cloudy
 Wind from calm
Wind: Calm
Temperature: 61°F , 16°C
Dew Point: 59°F , 15°C
Humidity: 94%
Barometer: 30.08 inHg , 1018.6 hPa
Clouds: Mostly cloudy
Visibility: 10 miles , 16 km
Cloud details: Mostly cloudy 4500 ft
2014/10/02 03:51 KILG 020351Z 00000KT 10SM BKN045 16/15 A3008 RMK AO2 SLP187 T01610150
KRDG - Reading, Pennsylvania, USA
Distance from station: WNW 43mi, 70km
Updated: Wed, 01-Oct-2014 11:54pm EDT
Clear
Clear
 Wind from N
Wind: N 3 mph , 6 km/h
Temperature: 61°F , 16°C
Dew Point: 55°F , 13°C
Humidity: 83%
Barometer: 30.08 inHg , 1018.6 hPa
Clouds: Clear
Visibility: 10 miles , 16 km
2014/10/02 03:54 KRDG 020354Z 36003KT 10SM CLR 16/13 A3008 RMK AO2 SLP190 T01560128
 
KNEL - Lakehurst Nas, New Jersey, USA
Distance from station: ESE 46mi, 74km
Updated: Sun, 28-Sep-2014 2:00pm EDT
NOT Current
Clear
Clear
 Wind from W
Wind: W 5 mph , 7 km/h
Temperature: 81°F , 27°C
Heat Index: 81°F , 27°C
Dew Point: 57°F , 14°C
Humidity: 45%
Barometer: 30.10 inHg , 1019.3 hPa
Clouds: Clear
Visibility: 10 miles , 16 km
2014/09/28 18:00 KNEL 281800Z AUTO 26004KT 10SM CLR 27/14 A3010 RMK AO2 SLP190 T02720144 10278 20133 58016 $
KMJX - Toms River, New Jersey, USA
Distance from station: ESE 50mi, 80km
Updated: Thu, 02-Oct-2014 12:15am EDT
Partly cloudy
Partly cloudy
 Wind from calm
Wind: Calm
Temperature: 59°F , 15°C
Dew Point: 55°F , 13°C
Humidity: 88%
Barometer: 30.07 inHg , 1018.3 hPa
Clouds: Partly cloudy
Visibility: 10 miles , 16 km
Cloud details: Partly cloudy 3600 ft
2014/10/02 04:15 KMJX 020415Z AUTO 00000KT 10SM SCT036 15/13 A3007 RMK AO1